createdAt,value
2017-10-22T09:46:52.059Z,87.54
2017-10-22T09:49:26.612Z,88.58
2017-10-22T09:52:07.524Z,88.75
2017-10-22T09:54:41.710Z,88.40
2017-10-22T09:57:17.045Z,88.95
2017-10-22T09:59:51.491Z,88.96
2017-10-22T10:02:25.617Z,89.17
2017-10-22T10:04:59.960Z,90.35
2017-10-22T10:07:34.467Z,88.73
2017-10-22T10:10:16.057Z,89.28
2017-10-22T10:12:51.443Z,88.50
2017-10-22T10:15:31.619Z,88.65
2017-10-22T10:18:07.243Z,88.69
2017-10-22T10:20:41.758Z,88.76
2017-10-22T10:23:16.467Z,88.53
2017-10-22T10:25:52.561Z,89.33
2017-10-22T10:28:26.860Z,89.16
2017-10-22T10:31:01.321Z,88.50
2017-10-22T10:33:35.517Z,88.43
2017-10-22T10:36:11.189Z,88.16
2017-10-22T10:38:45.479Z,88.88
2017-10-22T10:41:21.436Z,88.21
2017-10-22T10:43:56.446Z,88.65
2017-10-22T10:46:30.916Z,88.69
2017-10-22T10:49:05.170Z,88.42
2017-10-22T10:51:40.394Z,88.82
2017-10-22T10:54:14.583Z,88.29
2017-10-22T10:56:49.927Z,88.68
2017-10-22T10:59:27.804Z,88.59
2017-10-22T11:02:02.024Z,88.71
2017-10-22T11:04:36.537Z,88.95
2017-10-22T11:07:10.586Z,89.19
2017-10-22T11:09:45.155Z,88.87
2017-10-22T11:12:19.288Z,88.94
2017-10-22T11:14:53.820Z,89.16
2017-10-22T11:17:28.305Z,88.71
2017-10-22T11:22:45.907Z,87.92
2017-10-22T11:25:20.467Z,88.43
2017-10-22T11:27:55.069Z,87.96
2017-10-22T11:30:29.170Z,87.47
2017-10-22T11:33:03.764Z,88.47
2017-10-22T11:35:38.230Z,88.06
2017-10-22T11:38:12.843Z,87.83
2017-10-22T11:40:48.119Z,88.01
2017-10-22T11:43:22.559Z,87.86
2017-10-22T11:45:56.983Z,88.07
2017-10-22T11:48:32.067Z,87.84
2017-10-22T11:51:06.293Z,88.00
2017-10-22T11:53:40.925Z,87.18
2017-10-22T11:56:15.302Z,87.52
2017-10-22T11:58:49.723Z,87.96
2017-10-22T12:01:25.054Z,87.14
2017-10-22T12:03:59.463Z,87.24
2017-10-22T12:06:33.704Z,87.38
2017-10-22T12:09:08.300Z,86.83
2017-10-22T12:11:42.942Z,86.86
2017-10-22T12:14:17.530Z,87.01
2017-10-22T12:16:53.189Z,87.45
2017-10-22T12:19:27.588Z,86.82
2017-10-22T12:22:02.197Z,85.75
2017-10-22T12:24:36.756Z,86.76
2017-10-22T12:27:11.191Z,85.75
2017-10-22T12:29:45.731Z,85.70
2017-10-22T12:32:20.226Z,85.94
2017-10-22T12:34:54.871Z,86.17
2017-10-22T12:37:29.423Z,85.51
2017-10-22T12:40:13.502Z,85.20
2017-10-22T12:42:51.081Z,85.49
2017-10-22T12:45:25.705Z,85.08
2017-10-22T12:48:00.112Z,85.15
2017-10-22T12:50:35.524Z,84.56
2017-10-22T12:53:10.221Z,84.73
2017-10-22T12:55:44.547Z,84.50
2017-10-22T12:58:18.954Z,83.75
2017-10-22T13:00:54.727Z,83.84
2017-10-22T13:03:29.289Z,84.11
2017-10-22T13:06:04.572Z,83.46
2017-10-22T13:08:39.031Z,82.98
2017-10-22T13:11:14.169Z,83.67
2017-10-22T13:13:48.737Z,83.73
2017-10-22T13:16:23.198Z,83.52
2017-10-22T13:18:57.701Z,83.29
2017-10-22T13:21:32.710Z,83.23
2017-10-22T13:24:07.193Z,83.21
2017-10-22T13:26:41.650Z,82.51
2017-10-22T13:29:16.171Z,82.80
2017-10-22T13:31:50.551Z,83.15
2017-10-22T13:34:25.204Z,82.73
2017-10-22T13:36:59.607Z,82.51
2017-10-22T13:39:33.748Z,82.54
2017-10-22T13:42:08.402Z,82.05
2017-10-22T13:44:43.055Z,81.93
2017-10-22T13:47:17.527Z,81.53
2017-10-22T13:49:52.731Z,81.92
2017-10-22T13:52:27.332Z,81.34
2017-10-22T13:55:01.799Z,81.21
2017-10-22T13:57:36.318Z,80.98
2017-10-22T14:00:16.079Z,81.47
2017-10-22T14:02:51.036Z,81.02
2017-10-22T14:05:26.044Z,80.79
2017-10-22T14:11:08.130Z,80.51
2017-10-22T14:13:45.275Z,80.53
2017-10-22T14:16:19.785Z,80.40
2017-10-22T14:18:54.194Z,80.64
2017-10-22T14:21:28.702Z,80.13
2017-10-22T14:24:03.217Z,79.91
2017-10-22T14:26:37.632Z,79.68
2017-10-22T14:29:12.119Z,79.60
2017-10-22T14:31:47.149Z,78.73
2017-10-22T14:34:21.552Z,78.83
2017-10-22T14:36:56.055Z,78.34
2017-10-22T14:39:30.652Z,77.97
2017-10-22T14:42:05.064Z,78.10
2017-10-22T14:44:40.908Z,78.52
2017-10-22T14:47:15.502Z,77.60
2017-10-22T14:49:49.988Z,78.29
2017-10-22T14:52:27.891Z,78.48
2017-10-22T14:55:02.522Z,78.19
2017-10-22T14:57:42.830Z,78.83
2017-10-22T15:02:57.854Z,78.12
2017-10-22T15:05:32.459Z,78.08
2017-10-22T15:08:06.874Z,78.04
2017-10-22T15:10:41.107Z,78.14
2017-10-22T15:13:15.479Z,78.36
2017-10-22T15:15:49.770Z,78.42
2017-10-22T15:18:24.484Z,77.98
2017-10-22T15:20:58.891Z,78.02
2017-10-22T15:23:33.429Z,77.40
2017-10-22T15:26:07.907Z,77.41
2017-10-22T15:28:49.429Z,77.73
2017-10-22T15:31:24.603Z,77.44
2017-10-22T15:33:59.026Z,77.72
2017-10-22T15:36:34.139Z,77.88
2017-10-22T15:39:08.662Z,78.12
2017-10-22T15:41:43.899Z,78.08
2017-10-22T15:44:19.142Z,78.11
2017-10-22T15:46:53.730Z,78.04
2017-10-22T15:49:28.303Z,77.50
2017-10-22T15:52:04.944Z,77.55
2017-10-22T15:54:41.082Z,77.30
2017-10-22T15:57:15.769Z,77.04
2017-10-22T15:59:50.178Z,77.06
2017-10-22T16:02:24.603Z,77.00
2017-10-22T16:04:59.043Z,77.02
2017-10-22T16:07:33.534Z,76.77
2017-10-22T16:10:15.278Z,76.63
2017-10-22T16:12:49.852Z,76.59
2017-10-22T16:15:24.291Z,77.25
2017-10-22T16:17:58.834Z,76.86
2017-10-22T16:20:33.230Z,77.12
2017-10-22T16:23:09.329Z,77.40
2017-10-22T16:25:45.748Z,77.76
2017-10-22T16:28:20.354Z,77.66
2017-10-22T16:30:54.793Z,77.58
2017-10-22T16:33:29.428Z,78.05
2017-10-22T16:36:03.839Z,78.28
2017-10-22T16:38:38.358Z,78.05
2017-10-22T16:41:12.848Z,77.48
2017-10-22T16:43:47.410Z,77.91
2017-10-22T16:46:21.855Z,77.91
2017-10-22T16:48:56.378Z,78.21
2017-10-22T16:51:30.795Z,78.09
2017-10-22T16:54:05.974Z,78.34
2017-10-22T16:56:40.438Z,77.98
2017-10-22T16:59:14.965Z,78.48
2017-10-22T17:01:49.490Z,78.25
2017-10-22T17:04:24.078Z,78.04
2017-10-22T17:06:58.699Z,78.58
2017-10-22T17:09:33.298Z,78.44
2017-10-22T17:12:07.783Z,78.49
2017-10-22T17:14:42.290Z,78.52
2017-10-22T17:17:16.671Z,79.05
2017-10-22T17:19:51.193Z,78.62
2017-10-22T17:22:26.391Z,78.95
2017-10-22T17:25:01.641Z,78.74
2017-10-22T17:27:36.299Z,78.88
2017-10-22T17:30:10.765Z,78.68
2017-10-22T17:32:45.267Z,79.03
2017-10-22T17:35:20.497Z,79.31
2017-10-22T17:37:55.726Z,79.21
2017-10-22T17:40:30.556Z,78.98
2017-10-22T17:43:05.331Z,78.68
2017-10-22T17:45:39.764Z,78.87
2017-10-22T17:48:13.855Z,78.91
2017-10-22T17:50:48.295Z,78.83
2017-10-22T17:53:24.256Z,78.82
2017-10-22T17:55:58.807Z,79.16
2017-10-22T17:58:33.414Z,78.52
2017-10-22T18:01:09.199Z,78.90
2017-10-22T18:03:43.600Z,78.73
2017-10-22T18:06:18.479Z,78.73
2017-10-22T18:08:53.249Z,78.72
2017-10-22T18:11:28.678Z,77.97
2017-10-22T18:14:03.841Z,78.20
2017-10-22T18:16:38.368Z,77.77
2017-10-22T18:19:12.903Z,78.02
2017-10-22T18:21:47.531Z,77.88
2017-10-22T18:24:22.127Z,78.01
2017-10-22T18:26:56.373Z,78.16
2017-10-22T18:29:31.500Z,77.71
2017-10-22T18:32:06.494Z,77.89
2017-10-22T18:34:40.915Z,78.06
2017-10-22T18:37:16.810Z,78.24
2017-10-22T18:39:51.504Z,78.71
2017-10-22T18:42:26.398Z,79.03
2017-10-22T18:45:00.741Z,79.39
2017-10-22T18:47:35.198Z,78.92
2017-10-22T18:50:09.823Z,79.34
2017-10-22T18:52:44.419Z,79.73
2017-10-22T18:55:18.811Z,80.01
2017-10-22T18:57:53.970Z,79.99
2017-10-22T19:00:28.509Z,80.71
2017-10-22T19:03:03.854Z,80.21
2017-10-22T19:05:41.860Z,80.30
2017-10-22T19:08:16.558Z,79.98
2017-10-22T19:10:51.107Z,79.81
2017-10-22T19:13:25.674Z,79.91
2017-10-22T19:16:00.629Z,79.42
2017-10-22T19:18:35.143Z,78.97
2017-10-22T19:21:11.089Z,78.93
2017-10-22T19:23:45.560Z,78.40
2017-10-22T19:26:20.094Z,77.78
2017-10-22T19:28:55.814Z,77.76
2017-10-22T19:31:30.758Z,78.03
2017-10-22T19:34:05.202Z,76.85
2017-10-22T19:36:39.722Z,76.42
2017-10-22T19:39:14.148Z,75.54
2017-10-22T19:41:49.336Z,75.81
2017-10-22T19:44:23.875Z,75.39
2017-10-22T19:46:59.153Z,75.30
2017-10-22T19:49:33.710Z,75.85
2017-10-22T19:52:09.019Z,76.42
2017-10-22T19:54:44.376Z,76.93
2017-10-22T19:57:19.026Z,76.96
2017-10-22T19:59:54.202Z,76.89
2017-10-22T20:02:28.587Z,77.07
2017-10-22T20:05:14.268Z,77.35
2017-10-22T20:07:50.711Z,76.67
2017-10-22T20:10:25.616Z,76.31
2017-10-22T20:13:00.170Z,76.75
2017-10-22T20:15:34.827Z,77.53
2017-10-22T20:18:09.439Z,77.58
2017-10-22T20:20:45.154Z,77.62
2017-10-22T20:23:19.824Z,77.94
2017-10-22T20:25:54.279Z,78.38
2017-10-22T20:28:28.739Z,77.99
2017-10-22T20:31:03.286Z,78.10
2017-10-22T20:33:38.754Z,78.17
2017-10-22T20:36:14.299Z,78.57
2017-10-22T20:38:48.947Z,78.32
2017-10-22T20:41:24.693Z,79.12
2017-10-22T20:43:59.475Z,78.91
2017-10-22T20:46:34.147Z,79.15
2017-10-22T20:49:08.684Z,79.37
2017-10-22T20:51:45.605Z,79.75
2017-10-22T20:54:20.464Z,79.02
2017-10-22T20:56:54.999Z,78.95
2017-10-22T20:59:31.087Z,79.20
2017-10-22T21:02:05.620Z,78.08
2017-10-22T21:04:40.675Z,78.62
2017-10-22T21:07:15.262Z,78.75
2017-10-22T21:09:49.634Z,78.83
2017-10-22T21:12:24.680Z,78.54
2017-10-22T21:14:59.111Z,77.96
2017-10-22T21:17:33.507Z,78.44
2017-10-22T21:20:15.038Z,76.58
2017-10-22T21:22:49.542Z,77.22
2017-10-22T21:25:24.038Z,77.18
2017-10-22T21:27:58.684Z,77.32
2017-10-22T21:30:49.361Z,75.96
2017-10-22T21:33:23.895Z,75.51
2017-10-22T21:35:58.335Z,75.83
2017-10-22T21:38:32.903Z,75.17
2017-10-22T21:41:07.350Z,74.92
2017-10-22T21:43:41.770Z,75.19
2017-10-22T21:46:17.131Z,75.14
2017-10-22T21:48:54.074Z,74.84
2017-10-22T21:51:28.558Z,74.23
2017-10-22T21:54:03.320Z,74.35
2017-10-22T21:56:37.946Z,74.57
2017-10-22T21:59:13.104Z,74.52
2017-10-22T22:01:47.759Z,74.90
2017-10-22T22:04:22.291Z,74.33
2017-10-22T22:06:57.410Z,74.68
2017-10-22T22:09:31.896Z,74.73
2017-10-22T22:12:06.363Z,74.57
2017-10-22T22:14:40.915Z,75.31
2017-10-22T22:17:15.369Z,75.27
2017-10-22T22:19:49.927Z,75.05
2017-10-22T22:22:24.602Z,76.13
2017-10-22T22:24:59.881Z,76.09
2017-10-22T22:27:34.837Z,76.41
2017-10-22T22:30:09.455Z,76.59
2017-10-22T22:32:44.229Z,77.50
2017-10-22T22:35:18.778Z,78.44
2017-10-22T22:37:53.432Z,79.09
2017-10-22T22:40:28.083Z,78.50
2017-10-22T22:43:02.917Z,78.98
2017-10-22T22:45:37.578Z,80.32
2017-10-22T22:48:12.170Z,79.78
2017-10-22T22:50:54.987Z,80.96
2017-10-22T22:53:29.623Z,82.06
2017-10-22T22:56:04.131Z,81.70
2017-10-22T22:58:38.657Z,81.63
2017-10-22T23:01:13.185Z,82.33
2017-10-22T23:03:47.793Z,81.63
2017-10-22T23:06:23.247Z,82.29
2017-10-22T23:08:57.639Z,83.75
2017-10-22T23:11:32.070Z,82.65
2017-10-22T23:14:06.626Z,82.52
2017-10-22T23:16:41.347Z,84.04
2017-10-22T23:19:15.854Z,84.14
2017-10-22T23:21:51.804Z,85.09
2017-10-22T23:24:26.350Z,85.36
2017-10-22T23:27:01.356Z,84.80
2017-10-22T23:29:35.843Z,84.92
2017-10-22T23:32:10.299Z,84.98
2017-10-22T23:34:44.803Z,84.18
2017-10-22T23:37:19.199Z,84.00
2017-10-22T23:39:53.664Z,84.09
2017-10-22T23:42:28.098Z,84.21
2017-10-22T23:45:03.855Z,83.70
2017-10-22T23:47:39.009Z,83.64
2017-10-22T23:50:13.595Z,83.69
2017-10-22T23:52:48.224Z,83.44
2017-10-22T23:55:22.679Z,83.55
2017-10-22T23:57:58.200Z,84.01
